Terminal Aerodrome Forecast
Issued by NWS Austin/San Antonio, TX

Current Version | Previous Version | Text Only | Print | Product List | Glossary On
Versions: 1 2 3 4 5 6 7 8 9 10 11 12 13 14 15 16 17
733
FTUS44 KEWX 282326
TAFAUS
TAF
KAUS 282326Z 2900/3006 17013G23KT P6SM SCT050
     FM290200 17013KT P6SM OVC250
     FM290600 17013KT P6SM BKN012
     FM292100 18009KT P6SM OVC019
     FM300000 VRB10G25KT P6SM VCTS BKN025CB=

USA.gov is the U.S. government's official web portal to all federal, state and local government web resources and services.